sensor_id;sensor_type;location;lat;lon;timestamp;temperature;humidity
77829;DHT22;67019;51.034;3.728;2024-03-02T00:00:31;6.40;99.90
77829;DHT22;67019;51.034;3.728;2024-03-02T00:02:57;6.50;99.90
77829;DHT22;67019;51.034;3.728;2024-03-02T00:05:24;6.40;99.90
77829;DHT22;67019;51.034;3.728;2024-03-02T00:07:55;6.50;99.90
77829;DHT22;67019;51.034;3.728;2024-03-02T00:10:35;6.50;99.90
77829;DHT22;67019;51.034;3.728;2024-03-02T00:12:52;6.50;99.90
77829;DHT22;67019;51.034;3.728;2024-03-02T00:17:59;6.70;99.90
77829;DHT22;67019;51.034;3.728;2024-03-02T00:20:26;6.60;99.90
77829;DHT22;67019;51.034;3.728;2024-03-02T00:23:00;6.60;99.90
77829;DHT22;67019;51.034;3.728;2024-03-02T00:25:21;6.50;99.90
77829;DHT22;67019;51.034;3.728;2024-03-02T00:27:48;6.50;99.90
77829;DHT22;67019;51.034;3.728;2024-03-02T00:33:01;6.20;99.90
77829;DHT22;67019;51.034;3.728;2024-03-02T00:35:28;7.60;99.90
77829;DHT22;67019;51.034;3.728;2024-03-02T00:37:54;6.00;99.90
77829;DHT22;67019;51.034;3.728;2024-03-02T00:40:21;6.20;99.90
77829;DHT22;67019;51.034;3.728;2024-03-02T00:42:48;6.00;99.90
77829;DHT22;67019;51.034;3.728;2024-03-02T00:45:15;5.90;99.90
77829;DHT22;67019;51.034;3.728;2024-03-02T00:47:42;5.90;99.90
77829;DHT22;67019;51.034;3.728;2024-03-02T00:50:09;5.80;99.90
77829;DHT22;67019;51.034;3.728;2024-03-02T00:52:35;6.00;99.90
77829;DHT22;67019;51.034;3.728;2024-03-02T00:55:02;6.20;99.90
77829;DHT22;67019;51.034;3.728;2024-03-02T00:57:32;6.20;99.90
77829;DHT22;67019;51.034;3.728;2024-03-02T01:00:00;6.20;99.90
77829;DHT22;67019;51.034;3.728;2024-03-02T01:02:27;6.20;99.90
77829;DHT22;67019;51.034;3.728;2024-03-02T01:04:55;5.20;99.90
77829;DHT22;67019;51.034;3.728;2024-03-02T01:07:22;6.00;99.90
77829;DHT22;67019;51.034;3.728;2024-03-02T01:09:48;6.00;99.90
77829;DHT22;67019;51.034;3.728;2024-03-02T01:12:16;5.90;99.90
77829;DHT22;67019;51.034;3.728;2024-03-02T01:14:43;5.80;99.90
77829;DHT22;67019;51.034;3.728;2024-03-02T01:17:10;5.80;99.90
77829;DHT22;67019;51.034;3.728;2024-03-02T01:19:37;5.80;99.90
77829;DHT22;67019;51.034;3.728;2024-03-02T01:22:05;5.70;99.90
77829;DHT22;67019;51.034;3.728;2024-03-02T01:24:31;5.70;99.90
77829;DHT22;67019;51.034;3.728;2024-03-02T01:26:58;5.80;99.90
77829;DHT22;67019;51.034;3.728;2024-03-02T01:29:25;5.80;99.90
77829;DHT22;67019;51.034;3.728;2024-03-02T01:31:52;5.90;99.90
77829;DHT22;67019;51.034;3.728;2024-03-02T01:34:20;6.00;99.90
77829;DHT22;67019;51.034;3.728;2024-03-02T01:36:47;5.90;99.90
77829;DHT22;67019;51.034;3.728;2024-03-02T01:39:14;6.10;99.90
77829;DHT22;67019;51.034;3.728;2024-03-02T01:41:40;5.90;99.90
77829;DHT22;67019;51.034;3.728;2024-03-02T01:44:07;5.80;99.90
77829;DHT22;67019;51.034;3.728;2024-03-02T01:46:34;5.60;99.90
77829;DHT22;67019;51.034;3.728;2024-03-02T01:49:01;5.70;99.90
77829;DHT22;67019;51.034;3.728;2024-03-02T01:51:28;5.80;99.90
77829;DHT22;67019;51.034;3.728;2024-03-02T01:53:55;6.00;99.90
77829;DHT22;67019;51.034;3.728;2024-03-02T01:56:22;5.80;99.90
77829;DHT22;67019;51.034;3.728;2024-03-02T01:58:50;5.70;99.90
77829;DHT22;67019;51.034;3.728;2024-03-02T02:01:17;5.60;99.90
77829;DHT22;67019;51.034;3.728;2024-03-02T02:03:43;5.70;99.90
77829;DHT22;67019;51.034;3.728;2024-03-02T02:06:10;5.70;99.90
77829;DHT22;67019;51.034;3.728;2024-03-02T02:08:37;7.60;99.90
77829;DHT22;67019;51.034;3.728;2024-03-02T02:11:04;5.90;99.90
77829;DHT22;67019;51.034;3.728;2024-03-02T02:13:31;5.80;99.90
77829;DHT22;67019;51.034;3.728;2024-03-02T02:16:07;5.80;99.90
77829;DHT22;67019;51.034;3.728;2024-03-02T02:18:34;5.80;99.90
77829;DHT22;67019;51.034;3.728;2024-03-02T02:21:04;5.90;99.90
77829;DHT22;67019;51.034;3.728;2024-03-02T02:23:31;5.90;99.90
77829;DHT22;67019;51.034;3.728;2024-03-02T02:25:58;5.80;99.90
77829;DHT22;67019;51.034;3.728;2024-03-02T02:28:25;5.80;99.90
77829;DHT22;67019;51.034;3.728;2024-03-02T02:30:51;5.70;99.90
77829;DHT22;67019;51.034;3.728;2024-03-02T02:33:18;5.90;99.90
77829;DHT22;67019;51.034;3.728;2024-03-02T02:35:45;5.80;99.90
77829;DHT22;67019;51.034;3.728;2024-03-02T02:38:12;5.90;99.90
77829;DHT22;67019;51.034;3.728;2024-03-02T02:40:39;5.80;99.90
77829;DHT22;67019;51.034;3.728;2024-03-02T02:43:06;5.80;99.90
77829;DHT22;67019;51.034;3.728;2024-03-02T02:45:32;5.80;99.90
77829;DHT22;67019;51.034;3.728;2024-03-02T02:47:59;8.30;99.90
77829;DHT22;67019;51.034;3.728;2024-03-02T02:50:28;5.90;99.90
77829;DHT22;67019;51.034;3.728;2024-03-02T02:52:55;6.00;99.90
77829;DHT22;67019;51.034;3.728;2024-03-02T02:55:21;6.00;99.90
77829;DHT22;67019;51.034;3.728;2024-03-02T02:57:48;6.00;99.90
77829;DHT22;67019;51.034;3.728;2024-03-02T03:00:15;6.00;99.90
77829;DHT22;67019;51.034;3.728;2024-03-02T03:02:45;6.00;99.90
77829;DHT22;67019;51.034;3.728;2024-03-02T03:05:13;6.00;99.90
77829;DHT22;67019;51.034;3.728;2024-03-02T03:07:40;6.00;99.90
77829;DHT22;67019;51.034;3.728;2024-03-02T03:10:07;6.00;99.90
77829;DHT22;67019;51.034;3.728;2024-03-02T03:12:35;5.90;99.90
77829;DHT22;67019;51.034;3.728;2024-03-02T03:15:02;5.90;99.90
77829;DHT22;67019;51.034;3.728;2024-03-02T03:17:30;5.90;99.90
77829;DHT22;67019;51.034;3.728;2024-03-02T03:19:57;5.90;99.90
77829;DHT22;67019;51.034;3.728;2024-03-02T03:22:24;5.90;99.90
77829;DHT22;67019;51.034;3.728;2024-03-02T03:24:50;6.00;99.90
77829;DHT22;67019;51.034;3.728;2024-03-02T03:27:17;6.00;99.90
77829;DHT22;67019;51.034;3.728;2024-03-02T03:29:45;5.90;99.90
77829;DHT22;67019;51.034;3.728;2024-03-02T03:32:12;5.90;99.90
77829;DHT22;67019;51.034;3.728;2024-03-02T03:34:39;6.00;99.90
77829;DHT22;67019;51.034;3.728;2024-03-02T03:37:06;6.00;99.90
77829;DHT22;67019;51.034;3.728;2024-03-02T03:39:34;5.90;99.90
77829;DHT22;67019;51.034;3.728;2024-03-02T03:42:01;5.80;99.90
77829;DHT22;67019;51.034;3.728;2024-03-02T03:44:28;5.90;99.90
77829;DHT22;67019;51.034;3.728;2024-03-02T03:46:55;5.80;99.90
77829;DHT22;67019;51.034;3.728;2024-03-02T03:49:25;5.80;99.90
77829;DHT22;67019;51.034;3.728;2024-03-02T03:51:52;5.70;99.90
77829;DHT22;67019;51.034;3.728;2024-03-02T03:54:18;5.70;99.90
77829;DHT22;67019;51.034;3.728;2024-03-02T03:56:45;5.60;99.90
77829;DHT22;67019;51.034;3.728;2024-03-02T03:59:12;5.70;99.90
77829;DHT22;67019;51.034;3.728;2024-03-02T04:01:39;5.60;99.90
77829;DHT22;67019;51.034;3.728;2024-03-02T04:04:06;5.60;99.90
77829;DHT22;67019;51.034;3.728;2024-03-02T04:06:33;5.60;99.90
77829;DHT22;67019;51.034;3.728;2024-03-02T04:09:00;5.60;99.90
77829;DHT22;67019;51.034;3.728;2024-03-02T04:11:26;5.40;99.90
77829;DHT22;67019;51.034;3.728;2024-03-02T04:13:53;5.60;99.90
77829;DHT22;67019;51.034;3.728;2024-03-02T04:16:20;5.50;99.90
77829;DHT22;67019;51.034;3.728;2024-03-02T04:18:47;5.60;99.90
77829;DHT22;67019;51.034;3.728;2024-03-02T04:21:14;5.60;99.90
77829;DHT22;67019;51.034;3.728;2024-03-02T04:23:41;5.60;99.90
77829;DHT22;67019;51.034;3.728;2024-03-02T04:26:07;5.50;99.90
77829;DHT22;67019;51.034;3.728;2024-03-02T04:28:34;5.70;99.90
77829;DHT22;67019;51.034;3.728;2024-03-02T04:31:01;5.80;99.90
77829;DHT22;67019;51.034;3.728;2024-03-02T04:33:28;5.90;99.90
77829;DHT22;67019;51.034;3.728;2024-03-02T04:35:55;5.80;99.90
77829;DHT22;67019;51.034;3.728;2024-03-02T04:38:23;5.90;99.90
77829;DHT22;67019;51.034;3.728;2024-03-02T04:40:50;6.10;99.90
77829;DHT22;67019;51.034;3.728;2024-03-02T04:43:17;6.10;99.90
77829;DHT22;67019;51.034;3.728;2024-03-02T04:45:45;6.00;99.90
77829;DHT22;67019;51.034;3.728;2024-03-02T04:48:11;5.80;99.90
77829;DHT22;67019;51.034;3.728;2024-03-02T04:50:39;5.80;99.90
77829;DHT22;67019;51.034;3.728;2024-03-02T04:53:06;5.60;99.90
77829;DHT22;67019;51.034;3.728;2024-03-02T04:55:33;5.40;99.90
77829;DHT22;67019;51.034;3.728;2024-03-02T04:58:02;5.50;99.90
77829;DHT22;67019;51.034;3.728;2024-03-02T05:00:29;5.60;99.90
77829;DHT22;67019;51.034;3.728;2024-03-02T05:02:56;5.70;99.90
77829;DHT22;67019;51.034;3.728;2024-03-02T05:05:22;5.70;99.90
77829;DHT22;67019;51.034;3.728;2024-03-02T05:07:49;5.70;99.90
77829;DHT22;67019;51.034;3.728;2024-03-02T05:10:16;5.80;99.90
77829;DHT22;67019;51.034;3.728;2024-03-02T05:12:43;5.80;99.90
77829;DHT22;67019;51.034;3.728;2024-03-02T05:15:12;5.60;99.90
77829;DHT22;67019;51.034;3.728;2024-03-02T05:17:39;5.50;99.90
77829;DHT22;67019;51.034;3.728;2024-03-02T05:20:07;5.40;99.90
77829;DHT22;67019;51.034;3.728;2024-03-02T05:22:34;5.30;99.90
77829;DHT22;67019;51.034;3.728;2024-03-02T05:25:01;5.30;99.90
77829;DHT22;67019;51.034;3.728;2024-03-02T05:27:28;5.40;99.90
77829;DHT22;67019;51.034;3.728;2024-03-02T05:29:54;5.40;99.90
77829;DHT22;67019;51.034;3.728;2024-03-02T05:32:21;5.50;99.90
77829;DHT22;67019;51.034;3.728;2024-03-02T05:34:48;5.50;99.90
77829;DHT22;67019;51.034;3.728;2024-03-02T05:37:16;5.50;99.90
77829;DHT22;67019;51.034;3.728;2024-03-02T05:39:43;5.50;99.90
77829;DHT22;67019;51.034;3.728;2024-03-02T05:42:10;5.40;99.90
77829;DHT22;67019;51.034;3.728;2024-03-02T05:44:37;5.40;99.90
77829;DHT22;67019;51.034;3.728;2024-03-02T05:47:04;5.40;99.90
77829;DHT22;67019;51.034;3.728;2024-03-02T05:49:31;5.40;99.90
77829;DHT22;67019;51.034;3.728;2024-03-02T05:51:57;5.40;99.90
77829;DHT22;67019;51.034;3.728;2024-03-02T05:54:24;5.40;99.90
77829;DHT22;67019;51.034;3.728;2024-03-02T05:56:51;5.40;99.90
77829;DHT22;67019;51.034;3.728;2024-03-02T05:59:18;5.30;99.90
77829;DHT22;67019;51.034;3.728;2024-03-02T06:01:45;5.30;99.90
77829;DHT22;67019;51.034;3.728;2024-03-02T06:04:18;5.20;99.90
77829;DHT22;67019;51.034;3.728;2024-03-02T06:06:45;5.20;99.90
77829;DHT22;67019;51.034;3.728;2024-03-02T06:09:12;5.20;99.90
77829;DHT22;67019;51.034;3.728;2024-03-02T06:11:39;5.20;99.90
77829;DHT22;67019;51.034;3.728;2024-03-02T06:14:07;5.00;99.90
77829;DHT22;67019;51.034;3.728;2024-03-02T06:16:34;5.10;99.90
77829;DHT22;67019;51.034;3.728;2024-03-02T06:19:01;5.10;99.90
77829;DHT22;67019;51.034;3.728;2024-03-02T06:21:29;5.10;99.90
77829;DHT22;67019;51.034;3.728;2024-03-02T06:23:56;5.10;99.90
77829;DHT22;67019;51.034;3.728;2024-03-02T06:26:22;5.00;99.90
77829;DHT22;67019;51.034;3.728;2024-03-02T06:28:49;5.10;99.90
77829;DHT22;67019;51.034;3.728;2024-03-02T06:31:16;5.10;99.90
77829;DHT22;67019;51.034;3.728;2024-03-02T06:33:43;4.70;99.90
77829;DHT22;67019;51.034;3.728;2024-03-02T06:36:10;5.10;99.90
77829;DHT22;67019;51.034;3.728;2024-03-02T06:38:37;5.10;99.90
77829;DHT22;67019;51.034;3.728;2024-03-02T06:41:06;4.70;99.90
77829;DHT22;67019;51.034;3.728;2024-03-02T06:43:33;5.00;99.90
77829;DHT22;67019;51.034;3.728;2024-03-02T06:46:00;5.00;99.90
77829;DHT22;67019;51.034;3.728;2024-03-02T06:48:27;4.70;99.90
77829;DHT22;67019;51.034;3.728;2024-03-02T06:50:55;5.00;99.90
77829;DHT22;67019;51.034;3.728;2024-03-02T06:53:23;2.80;99.90
77829;DHT22;67019;51.034;3.728;2024-03-02T06:55:50;5.00;99.90
77829;DHT22;67019;51.034;3.728;2024-03-02T06:58:17;5.00;99.90
77829;DHT22;67019;51.034;3.728;2024-03-02T07:00:44;5.10;99.90
77829;DHT22;67019;51.034;3.728;2024-03-02T07:03:11;5.10;99.90
77829;DHT22;67019;51.034;3.728;2024-03-02T07:05:38;5.10;99.90
77829;DHT22;67019;51.034;3.728;2024-03-02T07:08:05;5.10;99.90
77829;DHT22;67019;51.034;3.728;2024-03-02T07:10:32;5.10;99.90
77829;DHT22;67019;51.034;3.728;2024-03-02T07:12:59;5.20;99.90
77829;DHT22;67019;51.034;3.728;2024-03-02T07:15:25;5.30;99.90
77829;DHT22;67019;51.034;3.728;2024-03-02T07:17:56;5.30;99.90
77829;DHT22;67019;51.034;3.728;2024-03-02T07:20:23;5.40;99.90
77829;DHT22;67019;51.034;3.728;2024-03-02T07:22:50;5.30;99.90
77829;DHT22;67019;51.034;3.728;2024-03-02T07:25:17;5.40;99.90
77829;DHT22;67019;51.034;3.728;2024-03-02T07:27:44;5.50;99.90
77829;DHT22;67019;51.034;3.728;2024-03-02T07:30:13;6.10;99.90
77829;DHT22;67019;51.034;3.728;2024-03-02T07:32:39;5.60;99.90
77829;DHT22;67019;51.034;3.728;2024-03-02T07:35:07;5.60;99.90
77829;DHT22;67019;51.034;3.728;2024-03-02T07:37:34;5.60;99.90
77829;DHT22;67019;51.034;3.728;2024-03-02T07:40:01;5.60;99.90
77829;DHT22;67019;51.034;3.728;2024-03-02T07:42:28;5.70;99.90
77829;DHT22;67019;51.034;3.728;2024-03-02T07:44:55;5.70;99.90
77829;DHT22;67019;51.034;3.728;2024-03-02T07:47:22;5.70;99.90
77829;DHT22;67019;51.034;3.728;2024-03-02T07:49:49;5.80;99.90
77829;DHT22;67019;51.034;3.728;2024-03-02T07:52:16;5.80;99.90
77829;DHT22;67019;51.034;3.728;2024-03-02T07:54:43;5.80;99.90
77829;DHT22;67019;51.034;3.728;2024-03-02T07:57:09;5.80;99.90
77829;DHT22;67019;51.034;3.728;2024-03-02T07:59:36;5.50;99.90
77829;DHT22;67019;51.034;3.728;2024-03-02T08:02:03;8.00;99.90
77829;DHT22;67019;51.034;3.728;2024-03-02T08:04:30;6.00;99.90
77829;DHT22;67019;51.034;3.728;2024-03-02T08:06:57;6.00;99.90
77829;DHT22;67019;51.034;3.728;2024-03-02T08:09:24;6.20;99.90
77829;DHT22;67019;51.034;3.728;2024-03-02T08:11:51;6.30;99.90
77829;DHT22;67019;51.034;3.728;2024-03-02T08:14:18;6.20;99.90
77829;DHT22;67019;51.034;3.728;2024-03-02T08:16:45;6.30;99.90
77829;DHT22;67019;51.034;3.728;2024-03-02T08:19:12;6.40;99.90
77829;DHT22;67019;51.034;3.728;2024-03-02T08:21:39;6.50;99.90
77829;DHT22;67019;51.034;3.728;2024-03-02T08:24:06;6.50;99.90
77829;DHT22;67019;51.034;3.728;2024-03-02T08:26:33;6.50;99.90
77829;DHT22;67019;51.034;3.728;2024-03-02T08:29:01;6.50;99.90
77829;DHT22;67019;51.034;3.728;2024-03-02T08:31:29;6.60;99.90
77829;DHT22;67019;51.034;3.728;2024-03-02T08:33:56;6.70;99.90
77829;DHT22;67019;51.034;3.728;2024-03-02T08:36:23;6.70;99.90
77829;DHT22;67019;51.034;3.728;2024-03-02T08:38:50;6.70;99.90
77829;DHT22;67019;51.034;3.728;2024-03-02T08:41:24;6.80;99.90
77829;DHT22;67019;51.034;3.728;2024-03-02T08:43:51;6.80;99.90
77829;DHT22;67019;51.034;3.728;2024-03-02T08:46:18;6.90;99.90
77829;DHT22;67019;51.034;3.728;2024-03-02T08:48:45;7.10;99.90
77829;DHT22;67019;51.034;3.728;2024-03-02T08:51:12;7.20;99.90
77829;DHT22;67019;51.034;3.728;2024-03-02T08:53:39;7.20;99.90
77829;DHT22;67019;51.034;3.728;2024-03-02T08:56:05;7.20;99.90
77829;DHT22;67019;51.034;3.728;2024-03-02T08:58:32;7.30;99.90
77829;DHT22;67019;51.034;3.728;2024-03-02T09:00:59;7.20;99.90
77829;DHT22;67019;51.034;3.728;2024-03-02T09:03:26;7.30;99.90
77829;DHT22;67019;51.034;3.728;2024-03-02T09:05:53;7.40;99.90
77829;DHT22;67019;51.034;3.728;2024-03-02T09:08:20;7.50;99.90
77829;DHT22;67019;51.034;3.728;2024-03-02T09:10:47;7.80;99.90
77829;DHT22;67019;51.034;3.728;2024-03-02T09:13:14;7.90;99.90
77829;DHT22;67019;51.034;3.728;2024-03-02T09:15:41;8.00;99.90
77829;DHT22;67019;51.034;3.728;2024-03-02T09:18:08;8.00;99.90
77829;DHT22;67019;51.034;3.728;2024-03-02T09:20:35;8.10;99.90
77829;DHT22;67019;51.034;3.728;2024-03-02T09:23:02;8.20;99.90
77829;DHT22;67019;51.034;3.728;2024-03-02T09:25:28;8.30;99.90
77829;DHT22;67019;51.034;3.728;2024-03-02T09:27:55;8.30;99.90
77829;DHT22;67019;51.034;3.728;2024-03-02T09:30:22;8.40;99.90
77829;DHT22;67019;51.034;3.728;2024-03-02T09:32:49;8.30;99.90
77829;DHT22;67019;51.034;3.728;2024-03-02T09:35:16;8.30;99.90
77829;DHT22;67019;51.034;3.728;2024-03-02T09:37:43;8.40;99.90
77829;DHT22;67019;51.034;3.728;2024-03-02T09:40:10;8.70;99.90
77829;DHT22;67019;51.034;3.728;2024-03-02T09:42:37;8.70;99.90
77829;DHT22;67019;51.034;3.728;2024-03-02T09:45:05;8.80;99.90
77829;DHT22;67019;51.034;3.728;2024-03-02T09:47:32;8.80;99.90
77829;DHT22;67019;51.034;3.728;2024-03-02T09:49:59;8.80;99.90
77829;DHT22;67019;51.034;3.728;2024-03-02T09:52:26;8.90;99.90
77829;DHT22;67019;51.034;3.728;2024-03-02T09:54:52;8.90;99.90
77829;DHT22;67019;51.034;3.728;2024-03-02T09:57:19;8.90;99.90
77829;DHT22;67019;51.034;3.728;2024-03-02T09:59:46;8.90;99.90
77829;DHT22;67019;51.034;3.728;2024-03-02T10:02:13;8.60;99.90
77829;DHT22;67019;51.034;3.728;2024-03-02T10:04:40;9.00;99.90
77829;DHT22;67019;51.034;3.728;2024-03-02T10:09:38;8.90;99.90
77829;DHT22;67019;51.034;3.728;2024-03-02T10:12:05;9.10;99.90
77829;DHT22;67019;51.034;3.728;2024-03-02T10:14:33;9.10;99.90
77829;DHT22;67019;51.034;3.728;2024-03-02T10:17:03;9.10;99.90
77829;DHT22;67019;51.034;3.728;2024-03-02T10:19:31;8.90;99.90
77829;DHT22;67019;51.034;3.728;2024-03-02T10:21:59;8.80;99.90
77829;DHT22;67019;51.034;3.728;2024-03-02T10:24:26;8.80;99.90
77829;DHT22;67019;51.034;3.728;2024-03-02T10:26:53;8.70;99.90
77829;DHT22;67019;51.034;3.728;2024-03-02T10:29:22;8.80;99.90
77829;DHT22;67019;51.034;3.728;2024-03-02T10:31:49;8.90;99.90
77829;DHT22;67019;51.034;3.728;2024-03-02T10:34:15;9.10;99.90
77829;DHT22;67019;51.034;3.728;2024-03-02T10:36:43;9.20;99.90
77829;DHT22;67019;51.034;3.728;2024-03-02T10:39:12;9.30;99.90
77829;DHT22;67019;51.034;3.728;2024-03-02T10:41:39;9.40;99.90
77829;DHT22;67019;51.034;3.728;2024-03-02T10:44:07;9.50;99.90
77829;DHT22;67019;51.034;3.728;2024-03-02T10:46:34;9.60;99.90
77829;DHT22;67019;51.034;3.728;2024-03-02T10:49:02;9.70;99.90
77829;DHT22;67019;51.034;3.728;2024-03-02T10:51:31;9.70;99.90
77829;DHT22;67019;51.034;3.728;2024-03-02T10:53:59;9.70;99.90
77829;DHT22;67019;51.034;3.728;2024-03-02T10:56:31;9.60;99.90
77829;DHT22;67019;51.034;3.728;2024-03-02T10:59:02;9.80;99.90
77829;DHT22;67019;51.034;3.728;2024-03-02T11:01:28;9.80;99.90
77829;DHT22;67019;51.034;3.728;2024-03-02T11:03:55;9.80;99.90
77829;DHT22;67019;51.034;3.728;2024-03-02T11:06:23;10.00;99.90
77829;DHT22;67019;51.034;3.728;2024-03-02T11:08:52;10.10;99.90
77829;DHT22;67019;51.034;3.728;2024-03-02T11:11:22;10.20;99.90
77829;DHT22;67019;51.034;3.728;2024-03-02T11:13:52;10.50;99.90
77829;DHT22;67019;51.034;3.728;2024-03-02T11:16:27;10.30;99.90
77829;DHT22;67019;51.034;3.728;2024-03-02T11:18:55;10.10;99.90
77829;DHT22;67019;51.034;3.728;2024-03-02T11:21:24;10.10;99.90
77829;DHT22;67019;51.034;3.728;2024-03-02T11:23:52;10.20;99.90
77829;DHT22;67019;51.034;3.728;2024-03-02T11:26:22;10.40;99.90
77829;DHT22;67019;51.034;3.728;2024-03-02T11:28:50;10.60;99.90
77829;DHT22;67019;51.034;3.728;2024-03-02T11:31:17;10.60;99.90
77829;DHT22;67019;51.034;3.728;2024-03-02T11:33:44;10.50;99.90
77829;DHT22;67019;51.034;3.728;2024-03-02T11:36:11;10.30;99.90
77829;DHT22;67019;51.034;3.728;2024-03-02T11:38:38;10.50;99.90
77829;DHT22;67019;51.034;3.728;2024-03-02T11:41:09;10.60;99.90
77829;DHT22;67019;51.034;3.728;2024-03-02T11:43:36;10.70;99.90
77829;DHT22;67019;51.034;3.728;2024-03-02T11:46:05;10.70;99.90
77829;DHT22;67019;51.034;3.728;2024-03-02T11:48:38;10.50;99.90
77829;DHT22;67019;51.034;3.728;2024-03-02T11:51:05;10.40;99.90
77829;DHT22;67019;51.034;3.728;2024-03-02T11:53:32;10.30;99.90
77829;DHT22;67019;51.034;3.728;2024-03-02T11:56:00;10.40;99.90
77829;DHT22;67019;51.034;3.728;2024-03-02T11:58:28;10.50;99.90
77829;DHT22;67019;51.034;3.728;2024-03-02T12:00:55;10.60;99.90
77829;DHT22;67019;51.034;3.728;2024-03-02T12:03:22;10.60;99.90
77829;DHT22;67019;51.034;3.728;2024-03-02T12:05:52;10.40;99.90
77829;DHT22;67019;51.034;3.728;2024-03-02T12:08:19;10.50;99.90
77829;DHT22;67019;51.034;3.728;2024-03-02T12:10:58;10.70;99.90
77829;DHT22;67019;51.034;3.728;2024-03-02T12:13:26;10.80;99.90
77829;DHT22;67019;51.034;3.728;2024-03-02T12:15:53;10.80;99.90
77829;DHT22;67019;51.034;3.728;2024-03-02T12:18:23;10.80;99.90
77829;DHT22;67019;51.034;3.728;2024-03-02T12:20:51;10.80;99.90
77829;DHT22;67019;51.034;3.728;2024-03-02T12:23:18;10.70;99.90
77829;DHT22;67019;51.034;3.728;2024-03-02T12:25:46;10.60;99.90
77829;DHT22;67019;51.034;3.728;2024-03-02T12:28:13;10.50;99.90
77829;DHT22;67019;51.034;3.728;2024-03-02T12:30:39;10.40;99.90
77829;DHT22;67019;51.034;3.728;2024-03-02T12:33:06;10.40;99.90
77829;DHT22;67019;51.034;3.728;2024-03-02T12:35:33;10.40;99.90
77829;DHT22;67019;51.034;3.728;2024-03-02T12:38:00;10.40;99.90
77829;DHT22;67019;51.034;3.728;2024-03-02T12:40:27;10.40;99.90
77829;DHT22;67019;51.034;3.728;2024-03-02T12:42:54;10.40;99.90
77829;DHT22;67019;51.034;3.728;2024-03-02T12:45:21;10.20;99.90
77829;DHT22;67019;51.034;3.728;2024-03-02T12:47:52;10.20;99.90
77829;DHT22;67019;51.034;3.728;2024-03-02T12:50:19;10.20;99.90
77829;DHT22;67019;51.034;3.728;2024-03-02T12:52:53;10.20;99.90
77829;DHT22;67019;51.034;3.728;2024-03-02T12:55:20;10.30;99.90
77829;DHT22;67019;51.034;3.728;2024-03-02T12:57:49;10.20;99.90
77829;DHT22;67019;51.034;3.728;2024-03-02T13:00:17;10.10;99.90
77829;DHT22;67019;51.034;3.728;2024-03-02T13:02:45;10.10;99.90
77829;DHT22;67019;51.034;3.728;2024-03-02T13:05:12;10.10;99.90
77829;DHT22;67019;51.034;3.728;2024-03-02T13:07:39;9.90;99.90
77829;DHT22;67019;51.034;3.728;2024-03-02T13:10:07;9.90;99.90
77829;DHT22;67019;51.034;3.728;2024-03-02T13:12:35;9.90;99.90
77829;DHT22;67019;51.034;3.728;2024-03-02T13:15:02;10.00;99.90
77829;DHT22;67019;51.034;3.728;2024-03-02T13:17:29;10.10;99.90
77829;DHT22;67019;51.034;3.728;2024-03-02T13:19:58;10.10;99.90
77829;DHT22;67019;51.034;3.728;2024-03-02T13:22:25;10.10;99.90
77829;DHT22;67019;51.034;3.728;2024-03-02T13:24:52;10.00;99.90
77829;DHT22;67019;51.034;3.728;2024-03-02T13:27:21;9.90;99.90
77829;DHT22;67019;51.034;3.728;2024-03-02T13:29:48;12.20;99.90
77829;DHT22;67019;51.034;3.728;2024-03-02T13:32:15;9.90;99.90
77829;DHT22;67019;51.034;3.728;2024-03-02T13:34:42;9.70;99.90
77829;DHT22;67019;51.034;3.728;2024-03-02T13:37:09;9.60;99.90
77829;DHT22;67019;51.034;3.728;2024-03-02T13:39:36;9.70;99.90
77829;DHT22;67019;51.034;3.728;2024-03-02T13:42:14;9.70;99.90
77829;DHT22;67019;51.034;3.728;2024-03-02T13:44:34;9.80;99.90
77829;DHT22;67019;51.034;3.728;2024-03-02T13:47:01;9.80;99.90
77829;DHT22;67019;51.034;3.728;2024-03-02T13:49:28;9.90;99.90
77829;DHT22;67019;51.034;3.728;2024-03-02T13:51:56;9.80;99.90
77829;DHT22;67019;51.034;3.728;2024-03-02T13:54:25;9.90;99.90
77829;DHT22;67019;51.034;3.728;2024-03-02T13:56:52;9.80;99.90
77829;DHT22;67019;51.034;3.728;2024-03-02T13:59:19;9.70;99.90
77829;DHT22;67019;51.034;3.728;2024-03-02T14:01:46;9.50;99.90
77829;DHT22;67019;51.034;3.728;2024-03-02T14:04:13;9.40;99.90
77829;DHT22;67019;51.034;3.728;2024-03-02T14:06:40;9.50;99.90
77829;DHT22;67019;51.034;3.728;2024-03-02T14:09:08;9.60;99.90
77829;DHT22;67019;51.034;3.728;2024-03-02T14:11:35;9.50;99.90
77829;DHT22;67019;51.034;3.728;2024-03-02T14:14:02;9.70;99.90
77829;DHT22;67019;51.034;3.728;2024-03-02T14:16:29;9.80;99.90
77829;DHT22;67019;51.034;3.728;2024-03-02T14:18:56;9.80;99.90
77829;DHT22;67019;51.034;3.728;2024-03-02T14:21:23;9.70;99.90
77829;DHT22;67019;51.034;3.728;2024-03-02T14:23:50;9.70;99.90
77829;DHT22;67019;51.034;3.728;2024-03-02T14:26:17;9.60;99.90
77829;DHT22;67019;51.034;3.728;2024-03-02T14:28:45;9.60;99.90
77829;DHT22;67019;51.034;3.728;2024-03-02T14:31:12;9.60;99.90
77829;DHT22;67019;51.034;3.728;2024-03-02T14:33:39;9.60;99.90
77829;DHT22;67019;51.034;3.728;2024-03-02T14:36:05;9.60;99.90
77829;DHT22;67019;51.034;3.728;2024-03-02T14:38:32;9.60;99.90
77829;DHT22;67019;51.034;3.728;2024-03-02T14:40:59;9.70;99.90
77829;DHT22;67019;51.034;3.728;2024-03-02T14:43:26;9.70;99.90
77829;DHT22;67019;51.034;3.728;2024-03-02T14:45:53;9.80;99.90
77829;DHT22;67019;51.034;3.728;2024-03-02T14:48:20;9.70;99.90
77829;DHT22;67019;51.034;3.728;2024-03-02T14:50:48;9.60;99.90
77829;DHT22;67019;51.034;3.728;2024-03-02T14:53:14;9.50;99.90
77829;DHT22;67019;51.034;3.728;2024-03-02T14:55:41;9.60;99.90
77829;DHT22;67019;51.034;3.728;2024-03-02T14:58:08;9.50;99.90
77829;DHT22;67019;51.034;3.728;2024-03-02T15:00:35;9.40;99.90
77829;DHT22;67019;51.034;3.728;2024-03-02T15:03:02;9.30;99.90
77829;DHT22;67019;51.034;3.728;2024-03-02T15:05:32;9.30;99.90
77829;DHT22;67019;51.034;3.728;2024-03-02T15:07:59;9.70;99.90
77829;DHT22;67019;51.034;3.728;2024-03-02T15:10:27;9.60;99.90
77829;DHT22;67019;51.034;3.728;2024-03-02T15:12:54;9.70;99.90
77829;DHT22;67019;51.034;3.728;2024-03-02T15:15:21;9.70;99.90
77829;DHT22;67019;51.034;3.728;2024-03-02T15:17:48;9.70;99.90
77829;DHT22;67019;51.034;3.728;2024-03-02T15:20:15;9.80;99.90
77829;DHT22;67019;51.034;3.728;2024-03-02T15:22:41;9.80;99.90
77829;DHT22;67019;51.034;3.728;2024-03-02T15:25:08;9.80;99.90
77829;DHT22;67019;51.034;3.728;2024-03-02T15:27:35;9.70;99.90
77829;DHT22;67019;51.034;3.728;2024-03-02T15:30:02;9.70;99.90
77829;DHT22;67019;51.034;3.728;2024-03-02T15:32:29;9.80;99.90
77829;DHT22;67019;51.034;3.728;2024-03-02T15:34:56;9.90;99.90
77829;DHT22;67019;51.034;3.728;2024-03-02T15:37:23;9.90;99.90
77829;DHT22;67019;51.034;3.728;2024-03-02T15:39:50;9.90;99.90
77829;DHT22;67019;51.034;3.728;2024-03-02T15:42:18;10.10;99.90
77829;DHT22;67019;51.034;3.728;2024-03-02T15:44:46;10.20;99.90
77829;DHT22;67019;51.034;3.728;2024-03-02T15:47:13;10.20;99.90
77829;DHT22;67019;51.034;3.728;2024-03-02T15:49:40;10.20;99.90
77829;DHT22;67019;51.034;3.728;2024-03-02T15:52:07;10.30;99.90